createdAt,value
2023-07-07T00:02:24.518Z,9.30
2023-07-07T00:04:51.953Z,9.43
2023-07-07T00:07:19.206Z,8.40
2023-07-07T00:09:45.969Z,7.40
2023-07-07T00:12:14.249Z,7.68
2023-07-07T00:14:41.399Z,7.10
2023-07-07T00:17:09.190Z,9.80
2023-07-07T00:19:36.101Z,8.68
2023-07-07T00:22:03.874Z,8.18
2023-07-07T00:24:30.705Z,9.70
2023-07-07T00:26:57.456Z,8.45
2023-07-07T00:29:24.293Z,7.75
2023-07-07T00:31:51.127Z,8.07
2023-07-07T00:34:17.870Z,10.10
2023-07-07T00:36:44.724Z,13.10
2023-07-07T00:39:11.612Z,11.23
2023-07-07T00:41:38.554Z,8.98
2023-07-07T00:44:10.693Z,9.00
2023-07-07T00:46:39.338Z,10.38
2023-07-07T00:49:13.014Z,8.65
2023-07-07T00:51:47.215Z,9.65
2023-07-07T00:54:17.711Z,8.10
2023-07-07T00:56:50.650Z,10.38
2023-07-07T00:59:22.403Z,9.60
2023-07-07T01:01:53.582Z,9.80
2023-07-07T01:04:21.779Z,10.18
2023-07-07T01:06:54.428Z,10.07
2023-07-07T01:11:48.396Z,11.57
2023-07-07T01:14:28.373Z,11.30
2023-07-07T01:17:22.182Z,12.75
2023-07-07T01:20:10.818Z,11.38
2023-07-07T01:22:58.620Z,10.70
2023-07-07T01:25:56.382Z,12.60
2023-07-07T01:28:32.792Z,9.88
2023-07-07T01:31:17.995Z,10.55
2023-07-07T01:33:47.808Z,14.23
2023-07-07T01:36:15.330Z,11.27
2023-07-07T01:38:45.483Z,13.40
2023-07-07T01:41:18.336Z,12.70
2023-07-07T01:44:15.891Z,11.35
2023-07-07T01:46:56.889Z,14.30
2023-07-07T01:49:31.915Z,11.75
2023-07-07T01:52:11.688Z,13.93
2023-07-07T01:54:44.553Z,14.52
2023-07-07T01:57:13.444Z,14.32
2023-07-07T01:59:42.722Z,11.65
2023-07-07T02:02:09.894Z,10.45
2023-07-07T02:04:36.717Z,12.10
2023-07-07T02:07:04.213Z,14.02
2023-07-07T02:09:31.043Z,13.05
2023-07-07T02:11:58.013Z,13.52
2023-07-07T02:14:24.925Z,13.50
2023-07-07T02:16:52.275Z,15.15
2023-07-07T02:19:19.075Z,13.02
2023-07-07T02:21:45.776Z,12.23
2023-07-07T02:24:12.631Z,14.88
2023-07-07T02:26:40.479Z,15.65
2023-07-07T02:29:07.240Z,13.15
2023-07-07T02:31:34.037Z,11.38
2023-07-07T02:34:00.830Z,12.48
2023-07-07T02:36:30.350Z,16.27
2023-07-07T02:38:58.656Z,11.82
2023-07-07T02:41:25.385Z,14.02
2023-07-07T02:43:54.559Z,15.57
2023-07-07T02:46:22.289Z,14.02
2023-07-07T02:48:49.062Z,14.50
2023-07-07T02:51:15.811Z,13.10
2023-07-07T02:53:42.557Z,15.68
2023-07-07T02:56:09.402Z,16.95
2023-07-07T02:58:36.331Z,16.98
2023-07-07T03:01:12.294Z,16.83
2023-07-07T03:03:42.775Z,21.42
2023-07-07T03:06:12.884Z,14.35
2023-07-07T03:08:40.260Z,15.23
2023-07-07T03:11:09.596Z,16.92
2023-07-07T03:13:38.428Z,18.35
2023-07-07T03:16:09.969Z,17.02
2023-07-07T03:18:41.147Z,18.50
2023-07-07T03:21:09.508Z,13.52
2023-07-07T03:23:39.519Z,20.20
2023-07-07T03:26:13.956Z,18.08
2023-07-07T03:28:41.270Z,16.38
2023-07-07T03:31:14.203Z,19.70
2023-07-07T03:33:46.553Z,18.58
2023-07-07T03:36:14.915Z,14.98
2023-07-07T03:38:42.974Z,13.50
2023-07-07T03:41:15.599Z,18.05
2023-07-07T03:43:46.397Z,18.50
2023-07-07T03:46:21.094Z,15.98
2023-07-07T03:48:49.958Z,17.48
2023-07-07T03:51:19.319Z,19.70
2023-07-07T03:53:46.222Z,16.73
2023-07-07T03:56:14.709Z,15.20
2023-07-07T03:58:41.545Z,19.42
2023-07-07T04:01:11.805Z,16.45
2023-07-07T04:03:38.773Z,15.52
2023-07-07T04:06:06.634Z,15.70
2023-07-07T04:08:34.588Z,16.83
2023-07-07T04:11:12.065Z,17.25
2023-07-07T04:13:40.798Z,15.10
2023-07-07T04:16:11.478Z,16.38
2023-07-07T04:18:39.149Z,13.95
2023-07-07T04:21:08.622Z,15.82
2023-07-07T04:23:37.640Z,15.85
2023-07-07T04:26:05.703Z,15.30
2023-07-07T04:28:33.028Z,15.45
2023-07-07T04:31:00.360Z,15.55
2023-07-07T04:33:29.262Z,15.60
2023-07-07T04:35:58.396Z,17.08
2023-07-07T04:38:31.754Z,15.73
2023-07-07T04:41:06.465Z,16.00
2023-07-07T04:43:34.568Z,17.67
2023-07-07T04:46:04.023Z,21.30
2023-07-07T04:48:31.078Z,17.23
2023-07-07T04:51:03.784Z,15.05
2023-07-07T04:53:34.405Z,17.48
2023-07-07T04:56:03.433Z,16.60
2023-07-07T04:58:30.634Z,18.35
2023-07-07T05:01:16.832Z,18.42
2023-07-07T05:03:45.053Z,16.92
2023-07-07T05:06:13.110Z,21.40
2023-07-07T05:08:42.301Z,17.50
2023-07-07T05:11:12.456Z,16.48
2023-07-07T05:13:39.398Z,19.33
2023-07-07T05:16:11.965Z,16.73
2023-07-07T05:21:09.115Z,17.02
2023-07-07T05:23:37.151Z,19.20
2023-07-07T05:26:04.834Z,17.73
2023-07-07T05:28:31.709Z,15.98
2023-07-07T05:30:58.900Z,16.33
2023-07-07T05:33:26.750Z,14.93
2023-07-07T05:35:55.677Z,16.50
2023-07-07T05:38:24.772Z,14.07
2023-07-07T05:40:51.917Z,19.15
2023-07-07T05:43:20.367Z,16.00
2023-07-07T05:45:47.361Z,13.98
2023-07-07T05:48:15.515Z,17.83
2023-07-07T05:50:45.115Z,17.77
2023-07-07T05:53:12.445Z,17.02
2023-07-07T05:55:39.935Z,12.80
2023-07-07T05:58:07.086Z,15.05
2023-07-07T06:00:35.185Z,17.10
2023-07-07T06:03:02.161Z,15.40
2023-07-07T06:05:29.728Z,16.33
2023-07-07T06:07:56.849Z,14.05
2023-07-07T06:10:23.751Z,13.85
2023-07-07T06:12:50.536Z,12.95
2023-07-07T06:15:17.729Z,14.93
2023-07-07T06:17:47.557Z,11.95
2023-07-07T06:20:15.229Z,12.98
2023-07-07T06:22:41.959Z,12.98
2023-07-07T06:25:09.530Z,12.57
2023-07-07T06:27:36.217Z,12.88
2023-07-07T06:30:03.355Z,12.15
2023-07-07T06:32:30.075Z,12.95
2023-07-07T06:34:56.834Z,10.77
2023-07-07T06:37:23.525Z,13.90
2023-07-07T06:39:50.361Z,11.20
2023-07-07T06:42:17.852Z,11.38
2023-07-07T06:44:54.507Z,11.82
2023-07-07T06:47:21.425Z,12.50
2023-07-07T06:49:48.241Z,12.38
2023-07-07T06:52:15.031Z,13.63
2023-07-07T06:54:41.809Z,9.43
2023-07-07T06:57:10.258Z,14.07
2023-07-07T06:59:37.187Z,10.32
2023-07-07T07:02:04.095Z,9.68
2023-07-07T07:04:30.871Z,10.82
2023-07-07T07:06:57.631Z,8.63
2023-07-07T07:09:24.397Z,9.48
2023-07-07T07:11:51.121Z,8.30
2023-07-07T07:14:17.884Z,15.68
2023-07-07T07:16:44.654Z,8.90
2023-07-07T07:19:11.397Z,8.88
2023-07-07T07:21:38.098Z,8.10
2023-07-07T07:24:05.152Z,8.93
2023-07-07T07:26:31.860Z,9.93
2023-07-07T07:28:58.584Z,9.60
2023-07-07T07:31:25.691Z,11.57
2023-07-07T07:33:55.048Z,7.57
2023-07-07T07:36:22.884Z,12.55
2023-07-07T07:38:49.599Z,8.80
2023-07-07T07:41:16.405Z,5.95
2023-07-07T07:43:43.206Z,7.10
2023-07-07T07:46:09.943Z,7.30
2023-07-07T07:48:36.687Z,6.78
2023-07-07T07:51:03.728Z,8.15
2023-07-07T07:53:33.706Z,8.60
2023-07-07T07:56:00.739Z,7.38
2023-07-07T07:58:27.533Z,7.32
2023-07-07T08:00:54.335Z,12.35
2023-07-07T08:03:21.360Z,5.22
2023-07-07T08:05:48.260Z,5.68
2023-07-07T08:08:17.361Z,5.03
2023-07-07T08:10:45.125Z,3.63
2023-07-07T08:13:18.154Z,6.32
2023-07-07T08:15:51.598Z,5.00
2023-07-07T08:18:18.324Z,8.60
2023-07-07T08:20:45.094Z,4.05
2023-07-07T08:23:11.910Z,6.05
2023-07-07T08:25:38.630Z,7.63
2023-07-07T08:28:08.415Z,7.45
2023-07-07T08:30:35.288Z,5.78
2023-07-07T08:33:02.310Z,4.78
2023-07-07T08:35:29.226Z,10.38
2023-07-07T08:37:55.983Z,4.97
2023-07-07T08:40:29.204Z,4.22
2023-07-07T08:42:55.922Z,3.95
2023-07-07T08:45:24.157Z,3.22
2023-07-07T08:48:19.966Z,4.13
2023-07-07T08:50:54.591Z,4.68
2023-07-07T08:53:31.801Z,5.38
2023-07-07T08:56:22.983Z,2.85
2023-07-07T08:58:58.637Z,5.28
2023-07-07T09:01:42.736Z,2.92
2023-07-07T09:04:28.285Z,4.22
2023-07-07T09:07:25.811Z,4.40
2023-07-07T09:10:22.748Z,5.55
2023-07-07T09:12:56.320Z,4.53
2023-07-07T09:15:26.961Z,5.22
2023-07-07T09:18:00.444Z,3.67
2023-07-07T09:20:30.849Z,2.78
2023-07-07T09:23:03.397Z,3.13
2023-07-07T09:25:53.417Z,4.72
2023-07-07T09:28:20.513Z,5.85
2023-07-07T09:30:53.961Z,3.75
2023-07-07T09:33:24.391Z,5.68
2023-07-07T09:36:02.917Z,3.45
2023-07-07T09:38:44.756Z,4.95
2023-07-07T09:41:27.392Z,6.10
2023-07-07T09:44:06.375Z,3.67
2023-07-07T09:46:39.280Z,4.88
2023-07-07T09:49:11.953Z,3.28
2023-07-07T09:51:46.034Z,4.57
2023-07-07T09:54:16.796Z,3.42
2023-07-07T09:56:56.499Z,3.97
2023-07-07T09:59:28.871Z,4.68
2023-07-07T10:01:56.720Z,3.45
2023-07-07T10:04:25.945Z,2.83
2023-07-07T10:06:55.588Z,4.60
2023-07-07T10:09:22.611Z,2.92
2023-07-07T10:14:20.552Z,2.93
2023-07-07T10:17:01.438Z,2.78
2023-07-07T10:19:28.520Z,3.63
2023-07-07T10:21:55.498Z,6.28
2023-07-07T10:24:22.339Z,5.10
2023-07-07T10:26:49.207Z,5.28
2023-07-07T10:29:24.938Z,4.20
2023-07-07T10:31:52.752Z,3.05
2023-07-07T10:34:32.116Z,2.40
2023-07-07T10:36:59.677Z,3.75
2023-07-07T10:39:32.894Z,2.65
2023-07-07T10:41:59.606Z,3.70
2023-07-07T10:44:28.303Z,3.75
2023-07-07T10:46:55.348Z,3.50
2023-07-07T10:49:27.709Z,5.70
2023-07-07T10:55:21.086Z,2.20
2023-07-07T10:58:27.715Z,3.45
2023-07-07T11:01:08.011Z,2.80
2023-07-07T11:04:05.551Z,3.55
2023-07-07T11:06:50.948Z,3.05
2023-07-07T11:09:46.433Z,3.38
2023-07-07T11:12:33.075Z,3.35
2023-07-07T11:15:06.855Z,2.97
2023-07-07T11:17:46.841Z,3.90
2023-07-07T11:20:22.277Z,3.58
2023-07-07T11:23:21.716Z,2.83
2023-07-07T11:26:10.100Z,3.47
2023-07-07T11:29:10.403Z,2.95
2023-07-07T11:32:02.828Z,2.75
2023-07-07T11:34:34.767Z,3.90
2023-07-07T11:37:13.275Z,3.22
2023-07-07T11:39:50.434Z,3.53
2023-07-07T11:42:26.426Z,3.30
2023-07-07T11:45:25.745Z,2.70
2023-07-07T11:48:00.984Z,3.55
2023-07-07T11:50:33.604Z,4.70
2023-07-07T11:53:19.233Z,3.03
2023-07-07T11:56:07.497Z,3.03
2023-07-07T11:58:45.310Z,3.15
2023-07-07T12:01:19.184Z,5.60
2023-07-07T12:03:49.247Z,3.25
2023-07-07T12:06:22.177Z,3.75
2023-07-07T12:09:15.726Z,3.55
2023-07-07T12:11:50.465Z,2.78
2023-07-07T12:14:50.756Z,2.95
2023-07-07T12:17:34.892Z,3.50
2023-07-07T12:20:09.355Z,4.03
2023-07-07T12:22:41.502Z,2.83
2023-07-07T12:25:25.282Z,3.63
2023-07-07T12:27:53.636Z,5.10
2023-07-07T12:30:26.483Z,3.88
2023-07-07T12:32:54.122Z,3.03
2023-07-07T12:35:32.701Z,2.75
2023-07-07T12:38:18.809Z,3.70
2023-07-07T12:40:46.541Z,4.70
2023-07-07T12:43:22.004Z,3.97
2023-07-07T12:45:51.252Z,4.53
2023-07-07T12:48:23.615Z,2.20
2023-07-07T12:50:50.813Z,5.22
2023-07-07T12:53:29.229Z,3.67
2023-07-07T12:56:08.401Z,6.10
2023-07-07T12:58:38.428Z,3.88
2023-07-07T13:01:11.560Z,3.42
2023-07-07T13:03:59.508Z,5.38
2023-07-07T13:06:32.563Z,5.13
2023-07-07T13:09:17.829Z,4.10
2023-07-07T13:11:55.020Z,4.70
2023-07-07T13:14:42.383Z,3.05
2023-07-07T13:17:23.814Z,6.65
2023-07-07T13:19:51.938Z,6.80
2023-07-07T13:22:26.061Z,5.07
2023-07-07T13:24:58.172Z,3.83
2023-07-07T13:27:27.722Z,4.18
2023-07-07T13:30:21.295Z,2.78
2023-07-07T13:32:48.009Z,2.88
2023-07-07T13:35:14.961Z,3.15
2023-07-07T13:37:42.049Z,5.65
2023-07-07T13:40:18.218Z,4.25
2023-07-07T13:42:51.052Z,3.85
2023-07-07T13:45:20.684Z,3.13
2023-07-07T13:47:51.006Z,4.25
2023-07-07T13:50:27.640Z,3.67
2023-07-07T13:52:57.601Z,3.60
2023-07-07T13:55:29.220Z,4.30
2023-07-07T13:57:55.961Z,3.20
2023-07-07T14:00:29.760Z,3.00
2023-07-07T14:02:57.179Z,3.70
2023-07-07T14:05:25.267Z,3.35
2023-07-07T14:07:52.071Z,4.65
2023-07-07T14:10:36.934Z,3.08
2023-07-07T14:13:22.135Z,4.40
2023-07-07T14:16:05.256Z,3.22
2023-07-07T14:18:38.247Z,4.05
2023-07-07T14:23:33.456Z,4.35
2023-07-07T14:26:00.466Z,4.47
2023-07-07T14:28:38.681Z,4.32
2023-07-07T14:31:09.486Z,4.28
2023-07-07T14:33:47.029Z,3.35
2023-07-07T14:36:30.804Z,6.35
2023-07-07T14:39:00.649Z,3.60
2023-07-07T14:41:32.962Z,4.30
2023-07-07T14:44:00.071Z,3.88
2023-07-07T14:46:31.983Z,5.05
2023-07-07T14:51:48.994Z,4.68
2023-07-07T14:54:22.390Z,3.53
2023-07-07T14:57:03.439Z,3.22
2023-07-07T14:59:35.842Z,4.00
2023-07-07T15:02:34.869Z,3.30
2023-07-07T15:05:29.119Z,5.45
2023-07-07T15:08:06.371Z,2.67
2023-07-07T15:10:34.330Z,3.40
2023-07-07T15:13:01.120Z,2.70
2023-07-07T15:15:27.869Z,3.58
2023-07-07T15:17:54.591Z,3.20
2023-07-07T15:20:22.474Z,10.23
2023-07-07T15:22:49.247Z,3.25
2023-07-07T15:25:16.081Z,4.63
2023-07-07T15:27:43.183Z,5.20
2023-07-07T15:30:19.092Z,3.97
2023-07-07T15:32:46.171Z,3.30
2023-07-07T15:35:14.541Z,3.33
2023-07-07T15:37:47.051Z,3.83
2023-07-07T15:40:19.983Z,3.85
2023-07-07T15:42:48.643Z,3.25
2023-07-07T15:45:15.456Z,3.90
2023-07-07T15:47:43.845Z,3.92
2023-07-07T15:50:16.834Z,4.75
2023-07-07T15:52:43.607Z,3.00
2023-07-07T15:55:10.473Z,4.10
2023-07-07T15:57:37.297Z,4.13
2023-07-07T16:00:25.910Z,3.50
2023-07-07T16:02:53.107Z,2.47
2023-07-07T16:05:20.120Z,3.88
2023-07-07T16:07:47.029Z,3.00
2023-07-07T16:10:14.909Z,3.72
2023-07-07T16:12:41.735Z,2.97
2023-07-07T16:15:10.642Z,5.45
2023-07-07T16:17:37.634Z,3.67
2023-07-07T16:20:22.030Z,2.92
2023-07-07T16:22:51.037Z,3.42
2023-07-07T16:25:17.820Z,2.50
2023-07-07T16:27:44.996Z,4.45
2023-07-07T16:30:19.204Z,4.40
2023-07-07T16:32:45.997Z,2.45
2023-07-07T16:35:14.437Z,4.88
2023-07-07T16:37:42.158Z,4.35
2023-07-07T16:40:29.265Z,3.05
2023-07-07T16:42:55.976Z,3.38
2023-07-07T16:45:23.283Z,3.00
2023-07-07T16:47:50.968Z,3.30
2023-07-07T16:50:34.005Z,3.83
2023-07-07T16:53:01.659Z,4.22
2023-07-07T16:55:28.941Z,5.97
2023-07-07T16:57:55.793Z,4.13
2023-07-07T17:00:25.565Z,6.70
2023-07-07T17:02:53.344Z,5.00
2023-07-07T17:05:24.265Z,5.07
2023-07-07T17:07:51.448Z,2.65
2023-07-07T17:10:37.736Z,3.78
2023-07-07T17:13:05.525Z,3.45
2023-07-07T17:15:32.934Z,3.22
2023-07-07T17:18:01.675Z,2.70
2023-07-07T17:20:34.782Z,2.67
2023-07-07T17:23:01.901Z,4.38
2023-07-07T17:25:29.021Z,4.18
2023-07-07T17:27:55.982Z,5.88
2023-07-07T17:30:27.744Z,2.50
2023-07-07T17:35:23.944Z,3.92
2023-07-07T17:37:51.218Z,3.13
2023-07-07T17:40:33.884Z,4.00
2023-07-07T17:43:00.701Z,3.17
2023-07-07T17:45:27.423Z,4.40
2023-07-07T17:47:54.360Z,3.45
2023-07-07T17:50:27.661Z,3.25
2023-07-07T17:52:54.576Z,3.78
2023-07-07T17:55:22.990Z,4.45
2023-07-07T17:57:49.910Z,2.38
2023-07-07T18:00:23.500Z,4.63
2023-07-07T18:02:51.009Z,6.00
2023-07-07T18:05:18.757Z,4.35
2023-07-07T18:07:45.888Z,5.20
2023-07-07T18:10:19.730Z,2.92
2023-07-07T18:12:53.780Z,3.75
2023-07-07T18:15:21.217Z,4.18
2023-07-07T18:18:14.304Z,4.25
2023-07-07T18:21:49.556Z,4.15
2023-07-07T18:23:25.858Z,2.47
2023-07-07T18:25:52.652Z,3.38
2023-07-07T18:28:19.436Z,2.88
2023-07-07T18:30:56.329Z,2.97
2023-07-07T18:33:23.533Z,3.60
2023-07-07T18:35:50.508Z,2.67
2023-07-07T18:38:21.007Z,3.25
2023-07-07T18:40:47.692Z,4.28
2023-07-07T18:43:14.693Z,2.85
2023-07-07T18:45:41.537Z,2.90
2023-07-07T18:48:15.586Z,4.40
2023-07-07T18:50:46.480Z,4.03
2023-07-07T18:53:14.396Z,3.60
2023-07-07T18:55:42.845Z,3.45
2023-07-07T18:58:12.289Z,5.18
2023-07-07T19:00:41.088Z,3.60
2023-07-07T19:03:09.168Z,3.47
2023-07-07T19:05:36.100Z,3.63
2023-07-07T19:08:02.985Z,3.90
2023-07-07T19:10:39.017Z,5.50
2023-07-07T19:13:17.731Z,8.07
2023-07-07T19:15:48.093Z,4.60
2023-07-07T19:18:25.077Z,4.45
2023-07-07T19:20:51.893Z,4.75
2023-07-07T19:23:18.756Z,4.30
2023-07-07T19:25:45.736Z,3.88
2023-07-07T19:28:30.214Z,5.70
2023-07-07T19:30:57.755Z,6.07
2023-07-07T19:33:24.987Z,4.65
2023-07-07T19:35:56.456Z,3.47
2023-07-07T19:38:25.425Z,2.97
2023-07-07T19:41:01.316Z,6.32
2023-07-07T19:43:28.226Z,3.92
2023-07-07T19:45:59.622Z,6.93
2023-07-07T19:48:27.008Z,3.58
2023-07-07T19:50:57.553Z,3.33
2023-07-07T19:53:24.407Z,2.58
2023-07-07T19:55:52.857Z,3.42
2023-07-07T19:58:21.193Z,4.63
2023-07-07T20:00:48.503Z,3.38
2023-07-07T20:03:15.352Z,4.50
2023-07-07T20:05:42.357Z,3.53
2023-07-07T20:08:16.775Z,3.60
2023-07-07T20:10:44.723Z,5.30
2023-07-07T20:13:12.244Z,4.57
2023-07-07T20:15:40.363Z,6.07
2023-07-07T20:18:11.099Z,3.47
2023-07-07T20:20:37.884Z,3.72
2023-07-07T20:23:12.225Z,6.35
2023-07-07T20:25:39.461Z,3.85
2023-07-07T20:28:07.135Z,6.57
2023-07-07T20:30:34.042Z,3.28
2023-07-07T20:33:00.750Z,3.75
2023-07-07T20:35:27.584Z,4.30
2023-07-07T20:37:54.327Z,4.20
2023-07-07T20:40:24.758Z,3.55
2023-07-07T20:42:52.270Z,4.57
2023-07-07T20:45:20.628Z,2.80
2023-07-07T20:47:47.786Z,3.13
2023-07-07T20:50:19.594Z,4.03
2023-07-07T20:52:46.502Z,5.10
2023-07-07T20:55:15.626Z,7.55
2023-07-07T20:57:42.732Z,4.13
2023-07-07T21:00:22.844Z,4.60
2023-07-07T21:02:50.576Z,3.92
2023-07-07T21:05:17.805Z,4.25
2023-07-07T21:07:45.231Z,4.40
2023-07-07T21:10:33.533Z,5.05
2023-07-07T21:13:00.883Z,5.50
2023-07-07T21:15:28.489Z,4.97
2023-07-07T21:17:55.368Z,4.97
2023-07-07T21:20:55.849Z,5.63
2023-07-07T21:23:24.052Z,6.75
2023-07-07T21:25:57.990Z,5.43
2023-07-07T21:28:24.831Z,4.18
2023-07-07T21:30:51.609Z,4.28
2023-07-07T21:33:18.679Z,9.35
2023-07-07T21:35:45.535Z,6.63
2023-07-07T21:38:14.168Z,4.57
2023-07-07T21:40:41.246Z,3.88
2023-07-07T21:43:07.988Z,4.95
2023-07-07T21:45:35.409Z,6.85
2023-07-07T21:48:05.121Z,3.78
2023-07-07T21:50:32.449Z,7.57
2023-07-07T21:52:59.801Z,5.10
2023-07-07T21:55:27.084Z,5.63
2023-07-07T21:57:58.164Z,6.50
2023-07-07T22:00:28.120Z,5.85
2023-07-07T22:02:59.031Z,6.38
2023-07-07T22:05:27.919Z,4.28
2023-07-07T22:07:55.772Z,5.80
2023-07-07T22:10:44.918Z,7.70
2023-07-07T22:13:12.714Z,4.20
2023-07-07T22:15:40.480Z,6.90
2023-07-07T22:18:18.231Z,7.18
2023-07-07T22:21:01.646Z,6.88
2023-07-07T22:23:29.664Z,5.88
2023-07-07T22:25:57.238Z,5.45
2023-07-07T22:28:30.049Z,6.60
2023-07-07T22:30:59.663Z,6.05
2023-07-07T22:33:28.356Z,5.53
2023-07-07T22:35:55.666Z,5.75
2023-07-07T22:38:26.363Z,6.22
2023-07-07T22:40:56.154Z,5.93
2023-07-07T22:43:24.084Z,7.45
2023-07-07T22:45:54.040Z,4.88
2023-07-07T22:48:21.374Z,4.30
2023-07-07T22:50:49.228Z,5.40
2023-07-07T22:53:16.516Z,7.95
2023-07-07T22:55:46.100Z,7.97
2023-07-07T22:58:15.025Z,5.45
2023-07-07T23:00:42.290Z,7.35
2023-07-07T23:03:09.350Z,6.90
2023-07-07T23:05:39.473Z,6.68
2023-07-07T23:08:33.033Z,5.13
2023-07-07T23:10:59.831Z,7.43
2023-07-07T23:13:26.968Z,12.75
2023-07-07T23:15:53.724Z,8.65
2023-07-07T23:18:20.986Z,5.63
2023-07-07T23:20:47.777Z,6.38
2023-07-07T23:23:21.411Z,6.93
2023-07-07T23:25:48.222Z,5.70
2023-07-07T23:28:15.049Z,6.97
2023-07-07T23:31:07.853Z,7.40
2023-07-07T23:33:36.409Z,5.90
2023-07-07T23:36:13.292Z,5.57
2023-07-07T23:38:40.116Z,7.80
2023-07-07T23:41:10.380Z,5.57
2023-07-07T23:43:37.168Z,5.55
2023-07-07T23:46:08.653Z,8.68
2023-07-07T23:48:35.545Z,7.18
2023-07-07T23:51:03.001Z,7.50
2023-07-07T23:53:30.816Z,7.30
2023-07-07T23:55:58.205Z,7.65
2023-07-07T23:58:26.996Z,6.75
